sensor_id;sensor_type;location;lat;lon;timestamp;pressure;altitude;pressure_sealevel;temperature;humidity
35716;BME280;21840;44.920;8.616;2022-07-29T00:01:19;100239.00;;;25.87;56.73
35716;BME280;21840;44.920;8.616;2022-07-29T00:03:45;100220.84;;;25.94;56.63
35716;BME280;21840;44.920;8.616;2022-07-29T00:06:10;100218.78;;;25.73;56.92
35716;BME280;21840;44.920;8.616;2022-07-29T00:08:36;100212.78;;;25.94;56.49
35716;BME280;21840;44.920;8.616;2022-07-29T00:11:01;100217.72;;;25.74;57.03
35716;BME280;21840;44.920;8.616;2022-07-29T00:13:30;100222.84;;;25.87;56.40
35716;BME280;21840;44.920;8.616;2022-07-29T00:15:55;100225.50;;;25.99;56.29
35716;BME280;21840;44.920;8.616;2022-07-29T00:18:21;100217.75;;;26.02;55.64
35716;BME280;21840;44.920;8.616;2022-07-29T00:20:46;100226.63;;;25.74;55.50
35716;BME280;21840;44.920;8.616;2022-07-29T00:23:12;100253.53;;;25.86;54.80
35716;BME280;21840;44.920;8.616;2022-07-29T00:25:37;100280.75;;;25.90;54.91
35716;BME280;21840;44.920;8.616;2022-07-29T00:28:03;100297.50;;;25.56;56.96
35716;BME280;21840;44.920;8.616;2022-07-29T00:30:32;100290.88;;;25.24;56.87
35716;BME280;21840;44.920;8.616;2022-07-29T00:32:57;100283.00;;;25.46;56.49
35716;BME280;21840;44.920;8.616;2022-07-29T00:35:22;100290.97;;;25.52;55.49
35716;BME280;21840;44.920;8.616;2022-07-29T00:38:06;100302.53;;;25.29;55.53
35716;BME280;21840;44.920;8.616;2022-07-29T00:40:32;100306.16;;;25.23;56.19
35716;BME280;21840;44.920;8.616;2022-07-29T00:42:58;100305.34;;;25.46;55.88
35716;BME280;21840;44.920;8.616;2022-07-29T00:45:23;100312.13;;;25.37;55.71
35716;BME280;21840;44.920;8.616;2022-07-29T00:47:49;100310.47;;;25.36;55.29
35716;BME280;21840;44.920;8.616;2022-07-29T00:50:14;100312.03;;;25.44;54.85
35716;BME280;21840;44.920;8.616;2022-07-29T00:52:41;100313.88;;;25.20;55.08
35716;BME280;21840;44.920;8.616;2022-07-29T00:55:09;100316.56;;;25.20;55.10
35716;BME280;21840;44.920;8.616;2022-07-29T00:57:35;100312.94;;;25.26;55.45
35716;BME280;21840;44.920;8.616;2022-07-29T01:00:04;100312.47;;;25.17;55.43
35716;BME280;21840;44.920;8.616;2022-07-29T01:02:30;100323.88;;;25.12;55.25
35716;BME280;21840;44.920;8.616;2022-07-29T01:04:56;100318.19;;;25.21;55.42
35716;BME280;21840;44.920;8.616;2022-07-29T01:07:24;100312.66;;;25.04;55.56
35716;BME280;21840;44.920;8.616;2022-07-29T01:09:50;100301.31;;;25.13;55.41
35716;BME280;21840;44.920;8.616;2022-07-29T01:12:19;100311.78;;;25.22;55.53
35716;BME280;21840;44.920;8.616;2022-07-29T01:14:48;100315.88;;;25.24;55.31
35716;BME280;21840;44.920;8.616;2022-07-29T01:17:21;100306.69;;;25.13;55.68
35716;BME280;21840;44.920;8.616;2022-07-29T01:20:30;100306.38;;;25.33;54.97
35716;BME280;21840;44.920;8.616;2022-07-29T01:31:49;100296.81;;;25.26;55.82
35716;BME280;21840;44.920;8.616;2022-07-29T01:34:53;100282.97;;;25.10;56.14
35716;BME280;21840;44.920;8.616;2022-07-29T01:37:30;100270.03;;;25.31;55.63
35716;BME280;21840;44.920;8.616;2022-07-29T01:39:58;100274.25;;;25.38;55.16
35716;BME280;21840;44.920;8.616;2022-07-29T01:42:42;100279.28;;;25.35;55.45
35716;BME280;21840;44.920;8.616;2022-07-29T01:45:14;100276.81;;;25.45;55.51
35716;BME280;21840;44.920;8.616;2022-07-29T01:47:44;100282.66;;;25.54;55.16
35716;BME280;21840;44.920;8.616;2022-07-29T01:50:14;100276.22;;;25.43;55.07
35716;BME280;21840;44.920;8.616;2022-07-29T01:52:59;100272.72;;;25.54;54.74
35716;BME280;21840;44.920;8.616;2022-07-29T01:55:29;100275.50;;;25.12;55.95
35716;BME280;21840;44.920;8.616;2022-07-29T01:57:57;100282.81;;;25.24;56.06
35716;BME280;21840;44.920;8.616;2022-07-29T02:00:25;100280.91;;;25.36;55.12
35716;BME280;21840;44.920;8.616;2022-07-29T02:02:53;100282.66;;;25.42;55.06
35716;BME280;21840;44.920;8.616;2022-07-29T02:05:21;100281.59;;;25.43;54.99
35716;BME280;21840;44.920;8.616;2022-07-29T02:07:49;100283.97;;;25.39;55.32
35716;BME280;21840;44.920;8.616;2022-07-29T02:10:18;100283.16;;;25.39;55.32
35716;BME280;21840;44.920;8.616;2022-07-29T02:12:46;100287.22;;;25.30;54.80
35716;BME280;21840;44.920;8.616;2022-07-29T02:15:13;100278.78;;;25.03;56.00
35716;BME280;21840;44.920;8.616;2022-07-29T02:17:49;100274.91;;;25.10;55.81
35716;BME280;21840;44.920;8.616;2022-07-29T02:20:15;100275.06;;;25.27;55.60
35716;BME280;21840;44.920;8.616;2022-07-29T02:22:42;100286.13;;;24.95;56.04
35716;BME280;21840;44.920;8.616;2022-07-29T02:25:10;100290.50;;;25.32;55.71
35716;BME280;21840;44.920;8.616;2022-07-29T02:27:37;100299.03;;;25.40;55.61
35716;BME280;21840;44.920;8.616;2022-07-29T02:30:03;100301.47;;;25.18;56.34
35716;BME280;21840;44.920;8.616;2022-07-29T02:32:31;100302.59;;;25.11;56.85
35716;BME280;21840;44.920;8.616;2022-07-29T02:34:58;100306.03;;;25.30;56.08
35716;BME280;21840;44.920;8.616;2022-07-29T02:37:24;100300.56;;;25.36;56.27
35716;BME280;21840;44.920;8.616;2022-07-29T02:39:53;100304.97;;;25.31;56.48
35716;BME280;21840;44.920;8.616;2022-07-29T02:42:21;100293.09;;;25.27;56.65
35716;BME280;21840;44.920;8.616;2022-07-29T02:44:48;100298.16;;;25.05;57.49
35716;BME280;21840;44.920;8.616;2022-07-29T02:47:24;100295.25;;;24.94;58.00
35716;BME280;21840;44.920;8.616;2022-07-29T02:52:49;100291.84;;;25.11;58.08
35716;BME280;21840;44.920;8.616;2022-07-29T02:55:33;100287.63;;;25.03;58.51
35716;BME280;21840;44.920;8.616;2022-07-29T02:58:01;100289.09;;;25.17;57.76
35716;BME280;21840;44.920;8.616;2022-07-29T03:00:29;100284.31;;;25.20;57.83
35716;BME280;21840;44.920;8.616;2022-07-29T03:02:57;100287.63;;;25.03;58.55
35716;BME280;21840;44.920;8.616;2022-07-29T03:05:24;100283.34;;;25.14;57.77
35716;BME280;21840;44.920;8.616;2022-07-29T03:07:55;100282.31;;;25.27;57.27
35716;BME280;21840;44.920;8.616;2022-07-29T03:10:26;100291.31;;;25.21;57.54
35716;BME280;21840;44.920;8.616;2022-07-29T03:12:52;100292.50;;;25.25;57.50
35716;BME280;21840;44.920;8.616;2022-07-29T03:15:19;100293.84;;;25.15;57.58
35716;BME280;21840;44.920;8.616;2022-07-29T03:17:46;100294.38;;;25.24;57.50
35716;BME280;21840;44.920;8.616;2022-07-29T03:20:12;100297.38;;;25.28;57.32
35716;BME280;21840;44.920;8.616;2022-07-29T03:22:40;100298.22;;;25.16;57.51
35716;BME280;21840;44.920;8.616;2022-07-29T03:25:10;100298.63;;;25.13;57.43
35716;BME280;21840;44.920;8.616;2022-07-29T03:27:35;100296.53;;;25.15;57.12
35716;BME280;21840;44.920;8.616;2022-07-29T03:30:01;100305.22;;;25.17;56.74
35716;BME280;21840;44.920;8.616;2022-07-29T03:32:26;100310.00;;;24.62;58.84
35716;BME280;21840;44.920;8.616;2022-07-29T03:34:52;100307.53;;;24.60;58.66
35716;BME280;21840;44.920;8.616;2022-07-29T03:37:17;100315.66;;;24.84;58.22
35716;BME280;21840;44.920;8.616;2022-07-29T03:39:43;100310.00;;;24.73;58.26
35716;BME280;21840;44.920;8.616;2022-07-29T03:42:15;100319.47;;;24.64;58.86
35716;BME280;21840;44.920;8.616;2022-07-29T03:44:42;100312.69;;;24.62;59.03
35716;BME280;21840;44.920;8.616;2022-07-29T03:47:10;100305.63;;;24.49;59.25
35716;BME280;21840;44.920;8.616;2022-07-29T03:49:39;100297.84;;;24.59;59.18
35716;BME280;21840;44.920;8.616;2022-07-29T03:52:06;100296.91;;;24.35;59.91
35716;BME280;21840;44.920;8.616;2022-07-29T03:54:32;100297.81;;;24.29;60.39
35716;BME280;21840;44.920;8.616;2022-07-29T03:57:00;100299.38;;;24.37;60.25
35716;BME280;21840;44.920;8.616;2022-07-29T03:59:27;100294.34;;;24.10;60.83
35716;BME280;21840;44.920;8.616;2022-07-29T04:01:53;100296.53;;;24.50;60.09
35716;BME280;21840;44.920;8.616;2022-07-29T04:04:21;100301.03;;;24.19;61.32
35716;BME280;21840;44.920;8.616;2022-07-29T04:06:47;100301.03;;;24.19;61.37
35716;BME280;21840;44.920;8.616;2022-07-29T04:09:13;100310.44;;;24.59;59.85
35716;BME280;21840;44.920;8.616;2022-07-29T04:11:57;100318.63;;;24.15;61.08
35716;BME280;21840;44.920;8.616;2022-07-29T04:14:23;100317.13;;;24.01;62.04
35716;BME280;21840;44.920;8.616;2022-07-29T04:16:48;100316.00;;;24.45;60.59
35716;BME280;21840;44.920;8.616;2022-07-29T04:19:14;100313.97;;;24.59;60.29
35716;BME280;21840;44.920;8.616;2022-07-29T04:21:40;100302.78;;;24.86;59.70
35716;BME280;21840;44.920;8.616;2022-07-29T04:24:06;100301.03;;;24.80;59.50
35716;BME280;21840;44.920;8.616;2022-07-29T04:26:32;100297.97;;;24.76;59.21
35716;BME280;21840;44.920;8.616;2022-07-29T04:28:58;100304.44;;;24.87;58.96
35716;BME280;21840;44.920;8.616;2022-07-29T04:31:24;100296.34;;;24.75;59.21
35716;BME280;21840;44.920;8.616;2022-07-29T04:33:49;100306.69;;;25.02;59.07
35716;BME280;21840;44.920;8.616;2022-07-29T04:36:15;100312.78;;;25.09;58.78
35716;BME280;21840;44.920;8.616;2022-07-29T04:38:41;100317.03;;;25.16;58.70
35716;BME280;21840;44.920;8.616;2022-07-29T04:41:06;100319.00;;;25.33;58.03
35716;BME280;21840;44.920;8.616;2022-07-29T04:43:34;100319.47;;;25.18;58.03
35716;BME280;21840;44.920;8.616;2022-07-29T04:46:00;100317.50;;;25.25;58.14
35716;BME280;21840;44.920;8.616;2022-07-29T04:48:26;100313.75;;;25.38;57.57
35716;BME280;21840;44.920;8.616;2022-07-29T04:50:52;100308.84;;;25.35;57.99
35716;BME280;21840;44.920;8.616;2022-07-29T04:53:17;100312.69;;;25.51;57.63
35716;BME280;21840;44.920;8.616;2022-07-29T04:55:43;100311.31;;;25.36;57.76
35716;BME280;21840;44.920;8.616;2022-07-29T04:58:10;100311.19;;;25.55;57.31
35716;BME280;21840;44.920;8.616;2022-07-29T05:00:36;100315.16;;;25.64;56.92
35716;BME280;21840;44.920;8.616;2022-07-29T05:03:02;100319.09;;;25.73;56.67
35716;BME280;21840;44.920;8.616;2022-07-29T05:05:27;100330.81;;;25.79;56.22
35716;BME280;21840;44.920;8.616;2022-07-29T05:07:53;100330.81;;;25.79;56.32
35716;BME280;21840;44.920;8.616;2022-07-29T05:10:18;100334.56;;;25.66;56.90
35716;BME280;21840;44.920;8.616;2022-07-29T05:12:44;100348.00;;;25.78;56.63
35716;BME280;21840;44.920;8.616;2022-07-29T05:15:09;100348.47;;;25.75;56.80
35716;BME280;21840;44.920;8.616;2022-07-29T05:17:35;100351.03;;;25.93;56.71
35716;BME280;21840;44.920;8.616;2022-07-29T05:20:00;100339.63;;;25.86;56.68
35716;BME280;21840;44.920;8.616;2022-07-29T05:22:26;100333.63;;;25.84;56.45
35716;BME280;21840;44.920;8.616;2022-07-29T05:24:51;100340.19;;;25.76;57.14
35716;BME280;21840;44.920;8.616;2022-07-29T05:27:20;100336.66;;;25.88;56.65
35716;BME280;21840;44.920;8.616;2022-07-29T05:29:45;100332.91;;;25.77;56.75
35716;BME280;21840;44.920;8.616;2022-07-29T05:32:12;100340.28;;;25.93;56.15
35716;BME280;21840;44.920;8.616;2022-07-29T05:34:37;100339.13;;;25.89;56.37
35716;BME280;21840;44.920;8.616;2022-07-29T05:37:03;100337.81;;;25.80;56.31
35716;BME280;21840;44.920;8.616;2022-07-29T05:39:29;100327.78;;;25.52;56.83
35716;BME280;21840;44.920;8.616;2022-07-29T05:41:54;100332.31;;;25.98;55.92
35716;BME280;21840;44.920;8.616;2022-07-29T05:44:20;100340.41;;;25.87;55.00
35716;BME280;21840;44.920;8.616;2022-07-29T05:46:48;100337.16;;;26.25;54.54
35716;BME280;21840;44.920;8.616;2022-07-29T05:49:14;100340.81;;;26.19;54.60
35716;BME280;21840;44.920;8.616;2022-07-29T05:51:40;100351.28;;;26.44;54.19
35716;BME280;21840;44.920;8.616;2022-07-29T05:54:05;100342.38;;;26.43;54.02
35716;BME280;21840;44.920;8.616;2022-07-29T05:56:31;100353.72;;;26.45;53.68
35716;BME280;21840;44.920;8.616;2022-07-29T05:58:56;100353.94;;;26.56;53.55
35716;BME280;21840;44.920;8.616;2022-07-29T06:01:22;100351.91;;;26.63;53.30
35716;BME280;21840;44.920;8.616;2022-07-29T06:03:47;100351.19;;;26.67;53.30
35716;BME280;21840;44.920;8.616;2022-07-29T06:06:13;100350.38;;;26.67;52.91
35716;BME280;21840;44.920;8.616;2022-07-29T06:08:38;100357.78;;;26.88;52.66
35716;BME280;21840;44.920;8.616;2022-07-29T06:11:06;100349.75;;;26.77;52.97
35716;BME280;21840;44.920;8.616;2022-07-29T06:13:32;100342.34;;;26.84;52.54
35716;BME280;21840;44.920;8.616;2022-07-29T06:15:58;100349.13;;;27.03;51.68
35716;BME280;21840;44.920;8.616;2022-07-29T06:18:23;100344.84;;;27.19;51.24
35716;BME280;21840;44.920;8.616;2022-07-29T06:20:52;100354.53;;;27.37;51.22
35716;BME280;21840;44.920;8.616;2022-07-29T06:23:19;100368.44;;;27.46;51.23
35716;BME280;21840;44.920;8.616;2022-07-29T06:25:44;100360.81;;;27.43;51.31
35716;BME280;21840;44.920;8.616;2022-07-29T06:28:10;100368.34;;;27.58;51.07
35716;BME280;21840;44.920;8.616;2022-07-29T06:30:36;100358.91;;;26.93;52.53
35716;BME280;21840;44.920;8.616;2022-07-29T06:33:02;100365.00;;;27.50;51.38
35716;BME280;21840;44.920;8.616;2022-07-29T06:35:28;100368.34;;;27.58;50.59
35716;BME280;21840;44.920;8.616;2022-07-29T06:37:54;100385.94;;;27.26;51.20
35716;BME280;21840;44.920;8.616;2022-07-29T06:40:19;100388.88;;;27.59;50.76
35716;BME280;21840;44.920;8.616;2022-07-29T06:43:04;100388.63;;;27.26;51.31
35716;BME280;21840;44.920;8.616;2022-07-29T06:45:33;100374.44;;;27.02;51.42
35716;BME280;21840;44.920;8.616;2022-07-29T06:47:58;100376.53;;;27.46;50.72
35716;BME280;21840;44.920;8.616;2022-07-29T06:50:27;100371.06;;;27.24;50.98
35716;BME280;21840;44.920;8.616;2022-07-29T06:52:53;100371.25;;;27.73;49.62
35716;BME280;21840;44.920;8.616;2022-07-29T06:55:18;100367.94;;;27.49;50.00
35716;BME280;21840;44.920;8.616;2022-07-29T06:57:45;100368.38;;;27.80;49.25
35716;BME280;21840;44.920;8.616;2022-07-29T07:00:12;100370.19;;;27.91;49.14
35716;BME280;21840;44.920;8.616;2022-07-29T07:02:38;100375.19;;;27.82;49.61
35716;BME280;21840;44.920;8.616;2022-07-29T07:05:03;100378.69;;;28.22;48.73
35716;BME280;21840;44.920;8.616;2022-07-29T07:07:30;100379.44;;;28.39;48.14
35716;BME280;21840;44.920;8.616;2022-07-29T07:09:56;100379.81;;;28.48;47.52
35716;BME280;21840;44.920;8.616;2022-07-29T07:12:22;100385.53;;;28.51;47.45
35716;BME280;21840;44.920;8.616;2022-07-29T07:14:47;100391.25;;;28.82;46.72
35716;BME280;21840;44.920;8.616;2022-07-29T07:17:13;100377.56;;;28.89;45.97
35716;BME280;21840;44.920;8.616;2022-07-29T07:19:39;100372.91;;;29.11;45.01
35716;BME280;21840;44.920;8.616;2022-07-29T07:22:04;100368.94;;;29.24;44.92
35716;BME280;21840;44.920;8.616;2022-07-29T07:24:29;100371.69;;;29.29;44.56
35716;BME280;21840;44.920;8.616;2022-07-29T07:26:55;100363.28;;;29.26;44.57
35716;BME280;21840;44.920;8.616;2022-07-29T07:29:20;100367.94;;;29.35;43.85
35716;BME280;21840;44.920;8.616;2022-07-29T07:31:49;100366.50;;;29.22;43.98
35716;BME280;21840;44.920;8.616;2022-07-29T07:34:14;100355.50;;;29.34;43.52
35716;BME280;21840;44.920;8.616;2022-07-29T07:36:40;100360.25;;;29.17;43.73
35716;BME280;21840;44.920;8.616;2022-07-29T07:39:05;100360.75;;;29.14;43.58
35716;BME280;21840;44.920;8.616;2022-07-29T07:41:31;100367.75;;;29.10;43.65
35716;BME280;21840;44.920;8.616;2022-07-29T07:43:57;100371.25;;;29.10;43.81
35716;BME280;21840;44.920;8.616;2022-07-29T07:46:25;100362.38;;;29.15;43.85
35716;BME280;21840;44.920;8.616;2022-07-29T07:48:51;100367.28;;;29.18;43.85
35716;BME280;21840;44.920;8.616;2022-07-29T07:51:17;100367.78;;;29.15;43.67
35716;BME280;21840;44.920;8.616;2022-07-29T07:53:43;100360.06;;;29.29;43.53
35716;BME280;21840;44.920;8.616;2022-07-29T07:56:10;100359.28;;;29.33;42.73
35716;BME280;21840;44.920;8.616;2022-07-29T07:58:35;100355.13;;;29.20;42.95
35716;BME280;21840;44.920;8.616;2022-07-29T08:01:01;100346.34;;;29.40;42.57
35716;BME280;21840;44.920;8.616;2022-07-29T08:03:27;100348.88;;;29.57;42.33
35716;BME280;21840;44.920;8.616;2022-07-29T08:05:52;100340.78;;;29.62;42.55
35716;BME280;21840;44.920;8.616;2022-07-29T08:08:19;100333.06;;;29.76;41.88
35716;BME280;21840;44.920;8.616;2022-07-29T08:10:45;100336.44;;;30.04;41.29
35716;BME280;21840;44.920;8.616;2022-07-29T08:13:25;100343.06;;;30.28;40.78
35716;BME280;21840;44.920;8.616;2022-07-29T08:15:56;100342.44;;;30.16;40.78
35716;BME280;21840;44.920;8.616;2022-07-29T08:18:36;100350.13;;;30.45;40.64
35716;BME280;21840;44.920;8.616;2022-07-29T08:21:02;100346.84;;;30.38;41.13
35716;BME280;21840;44.920;8.616;2022-07-29T08:23:28;100343.06;;;29.71;42.29
35716;BME280;21840;44.920;8.616;2022-07-29T08:26:04;100349.47;;;30.12;41.86
35716;BME280;21840;44.920;8.616;2022-07-29T08:28:30;100339.56;;;30.38;40.84
35716;BME280;21840;44.920;8.616;2022-07-29T08:30:56;100344.44;;;30.36;40.97
35716;BME280;21840;44.920;8.616;2022-07-29T08:33:21;100338.25;;;30.77;40.75
35716;BME280;21840;44.920;8.616;2022-07-29T08:35:47;100336.69;;;30.86;40.18
35716;BME280;21840;44.920;8.616;2022-07-29T08:38:12;100332.84;;;30.77;40.52
35716;BME280;21840;44.920;8.616;2022-07-29T08:40:38;100326.31;;;30.78;40.43
35716;BME280;21840;44.920;8.616;2022-07-29T08:43:07;100335.59;;;30.92;40.31
35716;BME280;21840;44.920;8.616;2022-07-29T08:45:44;100326.31;;;30.62;40.92
35716;BME280;21840;44.920;8.616;2022-07-29T08:48:11;100323.34;;;30.59;40.95
35716;BME280;21840;44.920;8.616;2022-07-29T08:50:37;100321.22;;;30.97;40.08
35716;BME280;21840;44.920;8.616;2022-07-29T08:53:03;100324.19;;;31.21;39.20
35716;BME280;21840;44.920;8.616;2022-07-29T08:55:30;100316.59;;;31.02;39.74
35716;BME280;21840;44.920;8.616;2022-07-29T08:57:56;100327.44;;;31.07;39.59
35716;BME280;21840;44.920;8.616;2022-07-29T09:00:23;100328.25;;;30.98;39.97
35716;BME280;21840;44.920;8.616;2022-07-29T09:02:56;100329.09;;;31.08;39.86
35716;BME280;21840;44.920;8.616;2022-07-29T09:05:23;100322.56;;;31.04;39.18
35716;BME280;21840;44.920;8.616;2022-07-29T09:07:50;100325.81;;;31.16;38.80
35716;BME280;21840;44.920;8.616;2022-07-29T09:10:15;100333.38;;;31.35;38.46
35716;BME280;21840;44.920;8.616;2022-07-29T09:12:41;100339.66;;;31.30;38.44
35716;BME280;21840;44.920;8.616;2022-07-29T09:15:07;100344.28;;;30.94;40.17
35716;BME280;21840;44.920;8.616;2022-07-29T09:17:40;100322.81;;;31.03;38.97
35716;BME280;21840;44.920;8.616;2022-07-29T09:20:18;100318.72;;;31.51;38.74
35716;BME280;21840;44.920;8.616;2022-07-29T09:22:44;100324.88;;;31.77;38.12
35716;BME280;21840;44.920;8.616;2022-07-29T09:25:30;100322.78;;;31.54;38.80
35716;BME280;21840;44.920;8.616;2022-07-29T09:28:08;100321.16;;;31.63;38.67
35716;BME280;21840;44.920;8.616;2022-07-29T09:30:34;100324.88;;;31.77;38.08
35716;BME280;21840;44.920;8.616;2022-07-29T09:33:02;100316.31;;;32.20;37.49
35716;BME280;21840;44.920;8.616;2022-07-29T09:35:31;100317.47;;;32.58;36.81
35716;BME280;21840;44.920;8.616;2022-07-29T09:37:56;100328.66;;;32.47;36.71
35716;BME280;21840;44.920;8.616;2022-07-29T09:40:24;100318.81;;;32.61;36.83
35716;BME280;21840;44.920;8.616;2022-07-29T09:42:50;100316.25;;;32.75;36.28
35716;BME280;21840;44.920;8.616;2022-07-29T09:45:33;100307.72;;;32.86;36.20
35716;BME280;21840;44.920;8.616;2022-07-29T09:48:00;100313.22;;;32.81;36.08
35716;BME280;21840;44.920;8.616;2022-07-29T09:50:42;100306.97;;;32.81;36.20
35716;BME280;21840;44.920;8.616;2022-07-29T09:53:09;100307.16;;;32.90;36.26
35716;BME280;21840;44.920;8.616;2022-07-29T09:55:48;100312.25;;;32.62;36.47
35716;BME280;21840;44.920;8.616;2022-07-29T09:58:16;100302.22;;;32.18;37.35
35716;BME280;21840;44.920;8.616;2022-07-29T10:00:43;100301.50;;;32.41;37.01
35716;BME280;21840;44.920;8.616;2022-07-29T10:03:09;100306.81;;;32.17;37.33
35716;BME280;21840;44.920;8.616;2022-07-29T10:05:34;100297.75;;;32.32;37.61
35716;BME280;21840;44.920;8.616;2022-07-29T10:08:00;100298.81;;;32.36;37.25
35716;BME280;21840;44.920;8.616;2022-07-29T10:10:32;100291.81;;;32.30;37.34
35716;BME280;21840;44.920;8.616;2022-07-29T10:13:03;100285.03;;;32.22;37.36
35716;BME280;21840;44.920;8.616;2022-07-29T10:15:31;100289.28;;;32.39;37.70
35716;BME280;21840;44.920;8.616;2022-07-29T10:17:58;100285.09;;;32.12;38.21
35716;BME280;21840;44.920;8.616;2022-07-29T10:20:24;100284.91;;;32.48;37.77
35716;BME280;21840;44.920;8.616;2022-07-29T10:22:51;100279.16;;;32.55;37.29
35716;BME280;21840;44.920;8.616;2022-07-29T10:25:18;100277.22;;;32.90;36.42
35716;BME280;21840;44.920;8.616;2022-07-29T10:27:44;100278.22;;;33.04;36.00
35716;BME280;21840;44.920;8.616;2022-07-29T10:30:13;100272.94;;;33.18;35.78
35716;BME280;21840;44.920;8.616;2022-07-29T10:41:16;100261.97;;;33.95;35.35
35716;BME280;21840;44.920;8.616;2022-07-29T10:44:05;100266.94;;;33.40;35.79
35716;BME280;21840;44.920;8.616;2022-07-29T10:46:42;100260.66;;;33.68;35.56
35716;BME280;21840;44.920;8.616;2022-07-29T10:49:10;100253.53;;;33.72;35.19
35716;BME280;21840;44.920;8.616;2022-07-29T10:51:56;100244.66;;;33.62;35.25
35716;BME280;21840;44.920;8.616;2022-07-29T10:59:39;100224.22;;;33.40;35.62
35716;BME280;21840;44.920;8.616;2022-07-29T11:07:29;100222.47;;;33.49;35.38
35716;BME280;21840;44.920;8.616;2022-07-29T11:10:22;100223.41;;;33.64;35.60
35716;BME280;21840;44.920;8.616;2022-07-29T11:12:48;100219.88;;;33.39;35.88
35716;BME280;21840;44.920;8.616;2022-07-29T11:15:15;100205.13;;;33.21;36.12
35716;BME280;21840;44.920;8.616;2022-07-29T11:20:47;100206.91;;;33.31;35.88
35716;BME280;21840;44.920;8.616;2022-07-29T11:23:23;100214.44;;;33.82;35.26
35716;BME280;21840;44.920;8.616;2022-07-29T11:31:45;100201.13;;;34.70;33.98
35716;BME280;21840;44.920;8.616;2022-07-29T11:34:25;100197.41;;;34.80;33.25
35716;BME280;21840;44.920;8.616;2022-07-29T11:47:29;100200.47;;;35.48;32.19
35716;BME280;21840;44.920;8.616;2022-07-29T11:49:56;100199.66;;;35.61;31.70
35716;BME280;21840;44.920;8.616;2022-07-29T11:52:23;100202.97;;;35.72;31.79
35716;BME280;21840;44.920;8.616;2022-07-29T11:54:50;100206.03;;;35.70;32.09
35716;BME280;21840;44.920;8.616;2022-07-29T11:57:19;100205.00;;;35.66;31.97
35716;BME280;21840;44.920;8.616;2022-07-29T11:59:46;100198.50;;;35.90;31.65
35716;BME280;21840;44.920;8.616;2022-07-29T12:02:13;100192.75;;;36.14;30.99
35716;BME280;21840;44.920;8.616;2022-07-29T12:04:55;100197.94;;;36.46;30.99
35716;BME280;21840;44.920;8.616;2022-07-29T12:07:32;100190.44;;;36.52;30.88
35716;BME280;21840;44.920;8.616;2022-07-29T12:09:58;100198.75;;;36.47;30.54
35716;BME280;21840;44.920;8.616;2022-07-29T12:12:24;100194.03;;;36.39;30.27
35716;BME280;21840;44.920;8.616;2022-07-29T12:14:50;100188.31;;;36.26;30.48
35716;BME280;21840;44.920;8.616;2022-07-29T12:17:26;100184.41;;;36.19;30.53
35716;BME280;21840;44.920;8.616;2022-07-29T12:19:53;100192.06;;;36.31;30.74
35716;BME280;21840;44.920;8.616;2022-07-29T12:22:39;100192.09;;;35.16;32.31
35716;BME280;21840;44.920;8.616;2022-07-29T12:25:10;100184.97;;;34.88;32.32
35716;BME280;21840;44.920;8.616;2022-07-29T12:27:37;100172.13;;;34.74;33.17
35716;BME280;21840;44.920;8.616;2022-07-29T12:30:08;100169.59;;;34.78;32.77
35716;BME280;21840;44.920;8.616;2022-07-29T12:32:39;100164.78;;;35.16;32.14
35716;BME280;21840;44.920;8.616;2022-07-29T12:35:11;100154.78;;;35.12;31.87
35716;BME280;21840;44.920;8.616;2022-07-29T12:37:38;100144.16;;;34.83;33.03
35716;BME280;21840;44.920;8.616;2022-07-29T12:40:05;100139.69;;;34.73;33.41
35716;BME280;21840;44.920;8.616;2022-07-29T12:42:31;100141.22;;;34.79;33.99
35716;BME280;21840;44.920;8.616;2022-07-29T12:44:57;100139.09;;;34.76;34.14
35716;BME280;21840;44.920;8.616;2022-07-29T12:47:23;100128.47;;;34.61;33.73
35716;BME280;21840;44.920;8.616;2022-07-29T12:49:50;100127.00;;;34.49;34.51
35716;BME280;21840;44.920;8.616;2022-07-29T12:52:31;100136.72;;;34.55;34.05
35716;BME280;21840;44.920;8.616;2022-07-29T12:54:57;100124.88;;;34.46;34.28
35716;BME280;21840;44.920;8.616;2022-07-29T12:57:23;100111.09;;;34.24;34.09
35716;BME280;21840;44.920;8.616;2022-07-29T13:00:22;100109.50;;;34.36;34.54
35716;BME280;21840;44.920;8.616;2022-07-29T13:02:55;100113.31;;;34.22;34.67
35716;BME280;21840;44.920;8.616;2022-07-29T13:05:21;100126.19;;;33.83;34.83
35716;BME280;21840;44.920;8.616;2022-07-29T13:07:47;100131.63;;;33.64;35.04
35716;BME280;21840;44.920;8.616;2022-07-29T13:12:39;100121.56;;;33.22;36.09
35716;BME280;21840;44.920;8.616;2022-07-29T13:15:14;100115.81;;;32.99;36.67
35716;BME280;21840;44.920;8.616;2022-07-29T13:17:42;100109.63;;;32.94;36.81
35716;BME280;21840;44.920;8.616;2022-07-29T13:20:11;100127.69;;;32.60;37.80
35716;BME280;21840;44.920;8.616;2022-07-29T13:22:41;100127.72;;;32.55;37.65
35716;BME280;21840;44.920;8.616;2022-07-29T13:25:09;100121.25;;;32.51;37.59
35716;BME280;21840;44.920;8.616;2022-07-29T13:27:37;100133.94;;;32.27;38.09
35716;BME280;21840;44.920;8.616;2022-07-29T13:30:05;100131.16;;;32.32;37.99
35716;BME280;21840;44.920;8.616;2022-07-29T13:32:31;100132.28;;;31.96;39.08
35716;BME280;21840;44.920;8.616;2022-07-29T13:35:04;100129.13;;;31.74;39.01
35716;BME280;21840;44.920;8.616;2022-07-29T13:37:30;100104.81;;;31.58;39.09
35716;BME280;21840;44.920;8.616;2022-07-29T13:39:58;100091.47;;;31.62;39.27
35716;BME280;21840;44.920;8.616;2022-07-29T13:42:27;100093.91;;;31.64;39.41
35716;BME280;21840;44.920;8.616;2022-07-29T13:44:52;100101.66;;;31.36;39.95
35716;BME280;21840;44.920;8.616;2022-07-29T13:47:21;100103.66;;;31.10;40.02
35716;BME280;21840;44.920;8.616;2022-07-29T13:49:48;100098.28;;;31.00;40.03